sensor_id;sensor_type;location;lat;lon;timestamp;pressure;altitude;pressure_sealevel;temperature;humidity
24486;BME280;13449;49.374;8.584;2023-04-02T00:00:34;99758.03;;;9.09;100.00
24486;BME280;13449;49.374;8.584;2023-04-02T00:03:05;99755.31;;;9.18;100.00
24486;BME280;13449;49.374;8.584;2023-04-02T00:05:39;99757.09;;;9.32;100.00
24486;BME280;13449;49.374;8.584;2023-04-02T00:08:21;99763.94;;;9.11;100.00
24486;BME280;13449;49.374;8.584;2023-04-02T00:10:50;99764.72;;;9.27;100.00
24486;BME280;13449;49.374;8.584;2023-04-02T00:13:25;99765.22;;;9.01;100.00
24486;BME280;13449;49.374;8.584;2023-04-02T00:15:55;99772.09;;;9.17;100.00
24486;BME280;13449;49.374;8.584;2023-04-02T00:18:25;99775.44;;;9.10;100.00
24486;BME280;13449;49.374;8.584;2023-04-02T00:20:59;99782.53;;;9.10;100.00
24486;BME280;13449;49.374;8.584;2023-04-02T00:23:28;99777.34;;;9.17;100.00
24486;BME280;13449;49.374;8.584;2023-04-02T00:25:57;99782.84;;;9.36;100.00
24486;BME280;13449;49.374;8.584;2023-04-02T00:28:23;99783.22;;;9.19;100.00
24486;BME280;13449;49.374;8.584;2023-04-02T00:30:52;99783.59;;;9.16;100.00
24486;BME280;13449;49.374;8.584;2023-04-02T00:33:23;99781.69;;;9.24;100.00
24486;BME280;13449;49.374;8.584;2023-04-02T00:35:52;99785.59;;;9.13;100.00
24486;BME280;13449;49.374;8.584;2023-04-02T00:38:29;99792.28;;;9.16;100.00
24486;BME280;13449;49.374;8.584;2023-04-02T00:41:05;99790.75;;;9.22;100.00
24486;BME280;13449;49.374;8.584;2023-04-02T00:43:37;99795.06;;;9.29;100.00
24486;BME280;13449;49.374;8.584;2023-04-02T00:46:11;99790.22;;;9.26;100.00
24486;BME280;13449;49.374;8.584;2023-04-02T00:48:45;99793.13;;;9.17;100.00
24486;BME280;13449;49.374;8.584;2023-04-02T00:53:44;99792.00;;;9.26;100.00
24486;BME280;13449;49.374;8.584;2023-04-02T00:56:17;99798.28;;;9.10;100.00
24486;BME280;13449;49.374;8.584;2023-04-02T00:58:51;99791.47;;;9.16;100.00
24486;BME280;13449;49.374;8.584;2023-04-02T01:01:22;99793.56;;;9.05;100.00
24486;BME280;13449;49.374;8.584;2023-04-02T01:03:58;99794.81;;;9.09;100.00
24486;BME280;13449;49.374;8.584;2023-04-02T01:06:28;99796.00;;;8.92;100.00
24486;BME280;13449;49.374;8.584;2023-04-02T01:17:46;99796.91;;;8.99;100.00
24486;BME280;13449;49.374;8.584;2023-04-02T01:23:03;99807.59;;;9.12;100.00
24486;BME280;13449;49.374;8.584;2023-04-02T01:28:15;99818.94;;;8.98;100.00
24486;BME280;13449;49.374;8.584;2023-04-02T01:30:53;99822.19;;;9.15;100.00
24486;BME280;13449;49.374;8.584;2023-04-02T01:36:38;99818.94;;;8.98;100.00
24486;BME280;13449;49.374;8.584;2023-04-02T01:39:16;99813.66;;;9.13;100.00
24486;BME280;13449;49.374;8.584;2023-04-02T01:42:14;99821.47;;;9.21;100.00
24486;BME280;13449;49.374;8.584;2023-04-02T01:47:17;99831.53;;;9.18;100.00
24486;BME280;13449;49.374;8.584;2023-04-02T01:49:46;99826.72;;;9.21;100.00
24486;BME280;13449;49.374;8.584;2023-04-02T01:52:32;99827.38;;;9.23;100.00
24486;BME280;13449;49.374;8.584;2023-04-02T01:55:01;99830.88;;;9.16;100.00
24486;BME280;13449;49.374;8.584;2023-04-02T01:57:28;99829.44;;;9.28;100.00
24486;BME280;13449;49.374;8.584;2023-04-02T01:59:59;99836.59;;;9.04;100.00
24486;BME280;13449;49.374;8.584;2023-04-02T02:02:29;99834.97;;;9.03;100.00
24486;BME280;13449;49.374;8.584;2023-04-02T02:04:57;99842.41;;;9.15;100.00
24486;BME280;13449;49.374;8.584;2023-04-02T02:07:24;99829.69;;;9.03;100.00
24486;BME280;13449;49.374;8.584;2023-04-02T02:09:53;99835.88;;;9.10;100.00
24486;BME280;13449;49.374;8.584;2023-04-02T02:12:21;99841.94;;;9.11;100.00
24486;BME280;13449;49.374;8.584;2023-04-02T02:14:49;99840.59;;;9.00;100.00
24486;BME280;13449;49.374;8.584;2023-04-02T02:17:26;99843.22;;;9.00;100.00
24486;BME280;13449;49.374;8.584;2023-04-02T02:19:59;99848.09;;;9.03;100.00
24486;BME280;13449;49.374;8.584;2023-04-02T02:25:21;99847.47;;;9.01;100.00
24486;BME280;13449;49.374;8.584;2023-04-02T02:30:33;99854.19;;;9.19;100.00
24486;BME280;13449;49.374;8.584;2023-04-02T02:33:11;99857.53;;;9.12;100.00
24486;BME280;13449;49.374;8.584;2023-04-02T02:35:51;99852.91;;;9.00;100.00
24486;BME280;13449;49.374;8.584;2023-04-02T02:38:36;99869.09;;;9.03;100.00
24486;BME280;13449;49.374;8.584;2023-04-02T02:41:25;99870.47;;;8.99;100.00
24486;BME280;13449;49.374;8.584;2023-04-02T02:44:09;99866.47;;;9.03;100.00
24486;BME280;13449;49.374;8.584;2023-04-02T02:49:35;99875.81;;;9.06;100.00
24486;BME280;13449;49.374;8.584;2023-04-02T02:54:38;99868.50;;;9.01;100.00
24486;BME280;13449;49.374;8.584;2023-04-02T02:57:10;99874.38;;;9.03;100.00
24486;BME280;13449;49.374;8.584;2023-04-02T02:59:38;99874.28;;;9.11;100.00
24486;BME280;13449;49.374;8.584;2023-04-02T03:02:06;99874.28;;;9.11;100.00
24486;BME280;13449;49.374;8.584;2023-04-02T03:04:34;99880.97;;;8.99;100.00
24486;BME280;13449;49.374;8.584;2023-04-02T03:07:02;99885.69;;;8.89;100.00
24486;BME280;13449;49.374;8.584;2023-04-02T03:12:41;99884.31;;;8.78;100.00
24486;BME280;13449;49.374;8.584;2023-04-02T03:17:59;99893.31;;;8.84;100.00
24486;BME280;13449;49.374;8.584;2023-04-02T03:20:32;99894.22;;;8.91;100.00
24486;BME280;13449;49.374;8.584;2023-04-02T03:23:21;99896.75;;;8.99;100.00
24486;BME280;13449;49.374;8.584;2023-04-02T03:28:40;99903.91;;;9.05;100.00
24486;BME280;13449;49.374;8.584;2023-04-02T03:31:35;99907.25;;;8.99;100.00
24486;BME280;13449;49.374;8.584;2023-04-02T03:34:10;99911.88;;;8.97;100.00
24486;BME280;13449;49.374;8.584;2023-04-02T03:36:49;99911.69;;;8.99;100.00
24486;BME280;13449;49.374;8.584;2023-04-02T03:42:07;99917.56;;;8.86;100.00
24486;BME280;13449;49.374;8.584;2023-04-02T03:44:41;99918.56;;;8.85;100.00
24486;BME280;13449;49.374;8.584;2023-04-02T03:47:15;99925.44;;;8.86;100.00
24486;BME280;13449;49.374;8.584;2023-04-02T03:49:47;99924.97;;;8.82;100.00
24486;BME280;13449;49.374;8.584;2023-04-02T03:52:28;99928.41;;;8.83;100.00
24486;BME280;13449;49.374;8.584;2023-04-02T03:54:58;99937.50;;;8.95;100.00
24486;BME280;13449;49.374;8.584;2023-04-02T03:57:34;99942.81;;;8.87;100.00
24486;BME280;13449;49.374;8.584;2023-04-02T04:00:19;99939.59;;;9.00;100.00
24486;BME280;13449;49.374;8.584;2023-04-02T04:02:55;99943.31;;;9.05;100.00
24486;BME280;13449;49.374;8.584;2023-04-02T04:05:47;99949.22;;;9.07;100.00
24486;BME280;13449;49.374;8.584;2023-04-02T04:08:20;99948.13;;;9.02;100.00
24486;BME280;13449;49.374;8.584;2023-04-02T04:10:56;99954.09;;;8.96;100.00
24486;BME280;13449;49.374;8.584;2023-04-02T04:13:34;99962.31;;;8.93;100.00
24486;BME280;13449;49.374;8.584;2023-04-02T04:16:08;99963.94;;;8.94;100.00
24486;BME280;13449;49.374;8.584;2023-04-02T04:18:46;99961.63;;;8.99;100.00
24486;BME280;13449;49.374;8.584;2023-04-02T04:21:27;99967.63;;;9.07;100.00
24486;BME280;13449;49.374;8.584;2023-04-02T04:24:13;99966.75;;;8.92;100.00
24486;BME280;13449;49.374;8.584;2023-04-02T04:27:05;99964.44;;;8.97;100.00
24486;BME280;13449;49.374;8.584;2023-04-02T04:29:39;99975.91;;;8.96;100.00
24486;BME280;13449;49.374;8.584;2023-04-02T04:32:27;99973.63;;;8.93;100.00
24486;BME280;13449;49.374;8.584;2023-04-02T04:35:02;99981.63;;;9.00;100.00
24486;BME280;13449;49.374;8.584;2023-04-02T04:37:31;99985.72;;;9.02;100.00
24486;BME280;13449;49.374;8.584;2023-04-02T04:42:37;99999.56;;;8.96;100.00
24486;BME280;13449;49.374;8.584;2023-04-02T04:48:02;99996.59;;;8.99;100.00
24486;BME280;13449;49.374;8.584;2023-04-02T04:50:36;100002.41;;;9.09;100.00
24486;BME280;13449;49.374;8.584;2023-04-02T04:53:05;100000.97;;;9.07;100.00
24486;BME280;13449;49.374;8.584;2023-04-02T04:55:38;100017.91;;;9.04;100.00
24486;BME280;13449;49.374;8.584;2023-04-02T04:58:22;100017.59;;;8.99;100.00
24486;BME280;13449;49.374;8.584;2023-04-02T05:00:54;100013.47;;;9.05;100.00
24486;BME280;13449;49.374;8.584;2023-04-02T05:03:53;100025.44;;;9.07;100.00
24486;BME280;13449;49.374;8.584;2023-04-02T05:09:54;100032.84;;;9.04;100.00
24486;BME280;13449;49.374;8.584;2023-04-02T05:17:45;100040.97;;;9.17;100.00
24486;BME280;13449;49.374;8.584;2023-04-02T05:22:49;100047.38;;;9.15;100.00
24486;BME280;13449;49.374;8.584;2023-04-02T05:25:24;100054.91;;;9.18;100.00
24486;BME280;13449;49.374;8.584;2023-04-02T05:28:06;100055.25;;;9.15;100.00
24486;BME280;13449;49.374;8.584;2023-04-02T05:30:45;100067.03;;;9.19;100.00
24486;BME280;13449;49.374;8.584;2023-04-02T05:33:20;100062.13;;;9.16;100.00
24486;BME280;13449;49.374;8.584;2023-04-02T05:35:56;100066.66;;;9.30;100.00
24486;BME280;13449;49.374;8.584;2023-04-02T05:38:28;100074.56;;;9.22;100.00
24486;BME280;13449;49.374;8.584;2023-04-02T05:41:04;100075.97;;;9.32;100.00
24486;BME280;13449;49.374;8.584;2023-04-02T05:43:33;100072.59;;;9.24;100.00
24486;BME280;13449;49.374;8.584;2023-04-02T05:46:11;100076.22;;;9.23;100.00
24486;BME280;13449;49.374;8.584;2023-04-02T05:48:41;100080.03;;;9.20;100.00
24486;BME280;13449;49.374;8.584;2023-04-02T05:51:21;100088.41;;;9.16;100.00
24486;BME280;13449;49.374;8.584;2023-04-02T05:54:02;100091.50;;;9.19;100.00
24486;BME280;13449;49.374;8.584;2023-04-02T05:56:36;100098.69;;;9.25;100.00
24486;BME280;13449;49.374;8.584;2023-04-02T06:02:35;100106.59;;;9.25;100.00
24486;BME280;13449;49.374;8.584;2023-04-02T06:05:11;100107.50;;;9.55;100.00
24486;BME280;13449;49.374;8.584;2023-04-02T06:10:18;100111.78;;;9.56;100.00
24486;BME280;13449;49.374;8.584;2023-04-02T06:12:56;100111.66;;;9.50;100.00
24486;BME280;13449;49.374;8.584;2023-04-02T06:15:30;100121.38;;;9.49;100.00
24486;BME280;13449;49.374;8.584;2023-04-02T06:18:23;100127.25;;;9.51;100.00
24486;BME280;13449;49.374;8.584;2023-04-02T06:20:50;100134.09;;;9.60;100.00
24486;BME280;13449;49.374;8.584;2023-04-02T06:26:36;100143.53;;;9.70;100.00
24486;BME280;13449;49.374;8.584;2023-04-02T06:28:47;100143.03;;;9.51;100.00
24486;BME280;13449;49.374;8.584;2023-04-02T06:34:03;100154.31;;;9.60;100.00
24486;BME280;13449;49.374;8.584;2023-04-02T06:36:34;100155.78;;;9.63;100.00
24486;BME280;13449;49.374;8.584;2023-04-02T06:39:07;100150.31;;;9.64;100.00
24486;BME280;13449;49.374;8.584;2023-04-02T06:41:34;100160.69;;;9.66;100.00
24486;BME280;13449;49.374;8.584;2023-04-02T06:44:13;100164.50;;;9.78;100.00
24486;BME280;13449;49.374;8.584;2023-04-02T06:46:47;100174.75;;;9.73;100.00
24486;BME280;13449;49.374;8.584;2023-04-02T06:49:41;100173.50;;;9.83;100.00
24486;BME280;13449;49.374;8.584;2023-04-02T06:52:21;100178.09;;;9.67;100.00
24486;BME280;13449;49.374;8.584;2023-04-02T06:54:49;100181.63;;;9.74;100.00
24486;BME280;13449;49.374;8.584;2023-04-02T06:57:15;100182.41;;;9.82;100.00
24486;BME280;13449;49.374;8.584;2023-04-02T06:59:42;100192.47;;;9.94;100.00
24486;BME280;13449;49.374;8.584;2023-04-02T07:02:20;100198.53;;;9.79;100.00
24486;BME280;13449;49.374;8.584;2023-04-02T07:04:49;100199.78;;;10.06;100.00
24486;BME280;13449;49.374;8.584;2023-04-02T07:07:16;100199.66;;;10.00;100.00
24486;BME280;13449;49.374;8.584;2023-04-02T07:09:46;100198.69;;;10.01;100.00
24486;BME280;13449;49.374;8.584;2023-04-02T07:12:17;100200.78;;;10.05;100.00
24486;BME280;13449;49.374;8.584;2023-04-02T07:14:47;100207.66;;;10.06;100.00
24486;BME280;13449;49.374;8.584;2023-04-02T07:17:18;100205.63;;;9.94;100.00
24486;BME280;13449;49.374;8.584;2023-04-02T07:19:45;100216.47;;;10.14;100.00
24486;BME280;13449;49.374;8.584;2023-04-02T07:22:16;100225.00;;;10.01;100.00
24486;BME280;13449;49.374;8.584;2023-04-02T07:24:43;100228.38;;;10.10;100.00
24486;BME280;13449;49.374;8.584;2023-04-02T07:27:10;100225.94;;;10.08;100.00
24486;BME280;13449;49.374;8.584;2023-04-02T07:29:40;100239.56;;;10.12;100.00
24486;BME280;13449;49.374;8.584;2023-04-02T07:32:11;100240.72;;;10.09;100.00
24486;BME280;13449;49.374;8.584;2023-04-02T07:34:40;100242.94;;;9.97;100.00
24486;BME280;13449;49.374;8.584;2023-04-02T07:37:12;100254.34;;;10.13;100.00
24486;BME280;13449;49.374;8.584;2023-04-02T07:39:41;100254.41;;;10.04;100.00
24486;BME280;13449;49.374;8.584;2023-04-02T07:42:10;100257.50;;;10.31;100.00
24486;BME280;13449;49.374;8.584;2023-04-02T07:44:37;100255.91;;;10.22;100.00
24486;BME280;13449;49.374;8.584;2023-04-02T07:47:03;100265.16;;;10.41;100.00
24486;BME280;13449;49.374;8.584;2023-04-02T07:49:30;100262.22;;;10.36;100.00
24486;BME280;13449;49.374;8.584;2023-04-02T07:51:56;100261.81;;;10.47;100.00
24486;BME280;13449;49.374;8.584;2023-04-02T07:54:23;100273.22;;;10.39;100.00
24486;BME280;13449;49.374;8.584;2023-04-02T07:56:49;100272.94;;;10.49;100.00
24486;BME280;13449;49.374;8.584;2023-04-02T07:59:16;100281.59;;;10.58;100.00
24486;BME280;13449;49.374;8.584;2023-04-02T08:01:42;100287.97;;;10.63;100.00
24486;BME280;13449;49.374;8.584;2023-04-02T08:04:20;100289.03;;;10.69;100.00
24486;BME280;13449;49.374;8.584;2023-04-02T08:06:48;100294.59;;;10.74;100.00
24486;BME280;13449;49.374;8.584;2023-04-02T08:09:16;100297.72;;;10.92;100.00
24486;BME280;13449;49.374;8.584;2023-04-02T08:11:44;100288.31;;;11.05;100.00
24486;BME280;13449;49.374;8.584;2023-04-02T08:14:12;100303.16;;;10.91;100.00
24486;BME280;13449;49.374;8.584;2023-04-02T08:16:47;100300.44;;;10.99;100.00
24486;BME280;13449;49.374;8.584;2023-04-02T08:19:18;100299.88;;;11.04;100.00
24486;BME280;13449;49.374;8.584;2023-04-02T08:21:45;100316.22;;;11.14;100.00
24486;BME280;13449;49.374;8.584;2023-04-02T08:24:13;100306.22;;;11.24;100.00
24486;BME280;13449;49.374;8.584;2023-04-02T08:26:39;100316.06;;;11.15;100.00
24486;BME280;13449;49.374;8.584;2023-04-02T08:29:10;100317.97;;;11.07;100.00
24486;BME280;13449;49.374;8.584;2023-04-02T08:31:36;100326.03;;;11.20;100.00
24486;BME280;13449;49.374;8.584;2023-04-02T08:34:03;100331.69;;;11.17;100.00
24486;BME280;13449;49.374;8.584;2023-04-02T08:36:33;100330.94;;;11.23;100.00
24486;BME280;13449;49.374;8.584;2023-04-02T08:39:00;100334.16;;;11.18;100.00
24486;BME280;13449;49.374;8.584;2023-04-02T08:41:27;100336.41;;;11.07;100.00
24486;BME280;13449;49.374;8.584;2023-04-02T08:46:44;100349.31;;;11.02;100.00
24486;BME280;13449;49.374;8.584;2023-04-02T08:49:16;100354.97;;;11.28;100.00
24486;BME280;13449;49.374;8.584;2023-04-02T08:51:47;100355.13;;;11.27;100.00
24486;BME280;13449;49.374;8.584;2023-04-02T08:54:23;100362.59;;;11.23;100.00
24486;BME280;13449;49.374;8.584;2023-04-02T08:56:55;100364.59;;;11.36;100.00
24486;BME280;13449;49.374;8.584;2023-04-02T08:59:37;100367.50;;;11.41;100.00
24486;BME280;13449;49.374;8.584;2023-04-02T09:02:57;100375.69;;;11.46;100.00
24486;BME280;13449;49.374;8.584;2023-04-02T09:05:20;100377.13;;;11.49;100.00
24486;BME280;13449;49.374;8.584;2023-04-02T09:07:52;100376.31;;;11.48;100.00
24486;BME280;13449;49.374;8.584;2023-04-02T09:10:25;100377.22;;;11.40;100.00
24486;BME280;13449;49.374;8.584;2023-04-02T09:12:56;100383.78;;;11.44;100.00
24486;BME280;13449;49.374;8.584;2023-04-02T09:15:33;100389.44;;;11.41;100.00
24486;BME280;13449;49.374;8.584;2023-04-02T09:18:16;100395.44;;;11.35;100.00
24486;BME280;13449;49.374;8.584;2023-04-02T09:20:44;100394.69;;;11.41;100.00
24486;BME280;13449;49.374;8.584;2023-04-02T09:23:22;100399.88;;;11.35;100.00
24486;BME280;13449;49.374;8.584;2023-04-02T09:25:51;100400.69;;;11.50;100.00
24486;BME280;13449;49.374;8.584;2023-04-02T09:28:29;100404.78;;;11.67;100.00
24486;BME280;13449;49.374;8.584;2023-04-02T09:31:17;100409.34;;;11.44;100.00
24486;BME280;13449;49.374;8.584;2023-04-02T09:33:45;100409.25;;;11.67;100.00
24486;BME280;13449;49.374;8.584;2023-04-02T09:41:35;100417.22;;;11.88;100.00
24486;BME280;13449;49.374;8.584;2023-04-02T09:44:12;100425.84;;;11.82;100.00
24486;BME280;13449;49.374;8.584;2023-04-02T09:46:52;100428.81;;;12.09;100.00
24486;BME280;13449;49.374;8.584;2023-04-02T09:49:25;100433.28;;;12.08;100.00
24486;BME280;13449;49.374;8.584;2023-04-02T09:54:32;100442.13;;;12.37;100.00
24486;BME280;13449;49.374;8.584;2023-04-02T09:59:26;100441.66;;;12.12;100.00
24486;BME280;13449;49.374;8.584;2023-04-02T10:07:34;100440.63;;;12.71;100.00
24486;BME280;13449;49.374;8.584;2023-04-02T10:10:21;100444.56;;;13.09;100.00
24486;BME280;13449;49.374;8.584;2023-04-02T10:12:58;100446.34;;;13.02;100.00
24486;BME280;13449;49.374;8.584;2023-04-02T10:15:31;100451.84;;;13.29;100.00
24486;BME280;13449;49.374;8.584;2023-04-02T10:18:06;100458.09;;;13.49;100.00
24486;BME280;13449;49.374;8.584;2023-04-02T10:20:33;100464.31;;;13.07;100.00
24486;BME280;13449;49.374;8.584;2023-04-02T10:23:17;100464.06;;;13.02;100.00
24486;BME280;13449;49.374;8.584;2023-04-02T10:25:52;100463.78;;;13.46;100.00
24486;BME280;13449;49.374;8.584;2023-04-02T10:31:22;100472.50;;;13.75;100.00
24486;BME280;13449;49.374;8.584;2023-04-02T10:34:04;100480.56;;;14.01;100.00
24486;BME280;13449;49.374;8.584;2023-04-02T10:39:27;100472.75;;;14.48;100.00
24486;BME280;13449;49.374;8.584;2023-04-02T10:42:09;100479.63;;;14.29;100.00
24486;BME280;13449;49.374;8.584;2023-04-02T10:44:51;100473.94;;;14.39;100.00
24486;BME280;13449;49.374;8.584;2023-04-02T10:47:41;100481.66;;;14.27;100.00
24486;BME280;13449;49.374;8.584;2023-04-02T10:50:56;100485.13;;;14.27;100.00
24486;BME280;13449;49.374;8.584;2023-04-02T10:53:36;100481.38;;;14.63;100.00
24486;BME280;13449;49.374;8.584;2023-04-02T10:56:09;100488.53;;;14.76;100.00
24486;BME280;13449;49.374;8.584;2023-04-02T10:58:54;100493.59;;;14.58;100.00
24486;BME280;13449;49.374;8.584;2023-04-02T11:01:28;100490.25;;;14.49;100.00
24486;BME280;13449;49.374;8.584;2023-04-02T11:09:41;100508.91;;;14.69;100.00
24486;BME280;13449;49.374;8.584;2023-04-02T11:12:21;100506.00;;;13.96;100.00
24486;BME280;13449;49.374;8.584;2023-04-02T11:14:49;100505.31;;;14.29;100.00
24486;BME280;13449;49.374;8.584;2023-04-02T11:17:18;100513.59;;;14.60;100.00
24486;BME280;13449;49.374;8.584;2023-04-02T11:19:45;100506.88;;;14.78;100.00
24486;BME280;13449;49.374;8.584;2023-04-02T11:22:24;100512.22;;;14.30;100.00
24486;BME280;13449;49.374;8.584;2023-04-02T11:24:55;100514.72;;;14.38;100.00
24486;BME280;13449;49.374;8.584;2023-04-02T11:27:29;100526.72;;;14.27;100.00
24486;BME280;13449;49.374;8.584;2023-04-02T11:32:47;100547.88;;;13.01;100.00
24486;BME280;13449;49.374;8.584;2023-04-02T11:35:43;100553.38;;;12.63;100.00
24486;BME280;13449;49.374;8.584;2023-04-02T11:40:45;100561.09;;;12.44;100.00
24486;BME280;13449;49.374;8.584;2023-04-02T11:48:47;100572.94;;;12.33;100.00
24486;BME280;13449;49.374;8.584;2023-04-02T11:53:48;100577.00;;;11.61;100.00
24486;BME280;13449;49.374;8.584;2023-04-02T11:58:57;100575.69;;;11.95;100.00
24486;BME280;13449;49.374;8.584;2023-04-02T12:01:32;100585.72;;;11.85;100.00
24486;BME280;13449;49.374;8.584;2023-04-02T12:14:56;100607.38;;;11.19;100.00
24486;BME280;13449;49.374;8.584;2023-04-02T12:17:35;100611.88;;;11.11;100.00
24486;BME280;13449;49.374;8.584;2023-04-02T12:22:45;100621.25;;;11.13;100.00
24486;BME280;13449;49.374;8.584;2023-04-02T12:25:33;100620.75;;;11.18;100.00
24486;BME280;13449;49.374;8.584;2023-04-02T12:30:36;100632.78;;;10.89;100.00
24486;BME280;13449;49.374;8.584;2023-04-02T12:35:57;100649.66;;;11.03;100.00
24486;BME280;13449;49.374;8.584;2023-04-02T12:38:32;100648.50;;;10.74;100.00
24486;BME280;13449;49.374;8.584;2023-04-02T12:41:04;100658.53;;;10.79;100.00
24486;BME280;13449;49.374;8.584;2023-04-02T12:43:33;100663.81;;;10.79;100.00
24486;BME280;13449;49.374;8.584;2023-04-02T12:46:03;100673.25;;;10.96;100.00
24486;BME280;13449;49.374;8.584;2023-04-02T12:48:31;100672.78;;;10.93;100.00
24486;BME280;13449;49.374;8.584;2023-04-02T12:51:02;100674.81;;;10.83;100.00
24486;BME280;13449;49.374;8.584;2023-04-02T12:53:39;100679.13;;;10.75;100.00
24486;BME280;13449;49.374;8.584;2023-04-02T12:56:20;100678.63;;;10.33;100.00
24486;BME280;13449;49.374;8.584;2023-04-02T12:58:58;100678.00;;;10.70;100.00
24486;BME280;13449;49.374;8.584;2023-04-02T13:01:27;100686.94;;;10.61;100.00
24486;BME280;13449;49.374;8.584;2023-04-02T13:06:36;100684.03;;;10.79;100.00
24486;BME280;13449;49.374;8.584;2023-04-02T13:09:05;100688.28;;;10.88;100.00
24486;BME280;13449;49.374;8.584;2023-04-02T13:11:38;100691.19;;;11.01;100.00
24486;BME280;13449;49.374;8.584;2023-04-02T13:14:13;100689.72;;;10.98;100.00
24486;BME280;13449;49.374;8.584;2023-04-02T13:16:42;100692.72;;;10.95;100.00
24486;BME280;13449;49.374;8.584;2023-04-02T13:19:25;100699.91;;;11.02;100.00
24486;BME280;13449;49.374;8.584;2023-04-02T13:21:53;100702.59;;;10.93;100.00
24486;BME280;13449;49.374;8.584;2023-04-02T13:24:28;100698.09;;;10.71;100.00
24486;BME280;13449;49.374;8.584;2023-04-02T13:27:00;100700.41;;;10.66;100.00
24486;BME280;13449;49.374;8.584;2023-04-02T13:29:31;100708.16;;;10.67;100.00
24486;BME280;13449;49.374;8.584;2023-04-02T13:32:06;100706.31;;;10.76;100.00
24486;BME280;13449;49.374;8.584;2023-04-02T13:34:37;100705.31;;;10.69;100.00
24486;BME280;13449;49.374;8.584;2023-04-02T13:37:09;100706.66;;;10.73;100.00
24486;BME280;13449;49.374;8.584;2023-04-02T13:39:37;100715.53;;;10.72;100.00
24486;BME280;13449;49.374;8.584;2023-04-02T13:42:04;100721.47;;;10.74;100.00
24486;BME280;13449;49.374;8.584;2023-04-02T13:44:34;100725.78;;;10.67;100.00
24486;BME280;13449;49.374;8.584;2023-04-02T13:47:02;100716.91;;;10.60;100.00
24486;BME280;13449;49.374;8.584;2023-04-02T13:49:30;100721.97;;;10.69;100.00
24486;BME280;13449;49.374;8.584;2023-04-02T13:51:59;100727.69;;;10.81;100.00
24486;BME280;13449;49.374;8.584;2023-04-02T13:57:02;100733.81;;;10.65;100.00
24486;BME280;13449;49.374;8.584;2023-04-02T13:59:28;100735.50;;;10.66;100.00
24486;BME280;13449;49.374;8.584;2023-04-02T14:01:59;100741.53;;;10.83;100.00
24486;BME280;13449;49.374;8.584;2023-04-02T14:04:32;100748.06;;;10.95;100.00
24486;BME280;13449;49.374;8.584;2023-04-02T14:12:19;100759.84;;;10.68;100.00
24486;BME280;13449;49.374;8.584;2023-04-02T14:14:59;100764.66;;;10.48;100.00
24486;BME280;13449;49.374;8.584;2023-04-02T14:31:09;100794.66;;;10.31;100.00
24486;BME280;13449;49.374;8.584;2023-04-02T14:36:42;100801.22;;;10.35;100.00
24486;BME280;13449;49.374;8.584;2023-04-02T14:42:00;100813.25;;;10.38;100.00
24486;BME280;13449;49.374;8.584;2023-04-02T14:44:35;100812.59;;;10.27;100.00
24486;BME280;13449;49.374;8.584;2023-04-02T14:47:28;100811.91;;;10.17;100.00
24486;BME280;13449;49.374;8.584;2023-04-02T14:50:03;100825.25;;;10.07;100.00
24486;BME280;13449;49.374;8.584;2023-04-02T14:52:36;100825.56;;;10.13;100.00
24486;BME280;13449;49.374;8.584;2023-04-02T14:55:05;100821.94;;;10.14;100.00
24486;BME280;13449;49.374;8.584;2023-04-02T14:57:43;100826.72;;;10.26;100.00
24486;BME280;13449;49.374;8.584;2023-04-02T15:03:15;100837.75;;;10.22;100.00
24486;BME280;13449;49.374;8.584;2023-04-02T15:05:49;100839.84;;;9.94;100.00
24486;BME280;13449;49.374;8.584;2023-04-02T15:08:27;100844.81;;;10.05;100.00
24486;BME280;13449;49.374;8.584;2023-04-02T15:13:44;100853.03;;;10.02;100.00
24486;BME280;13449;49.374;8.584;2023-04-02T15:16:21;100852.50;;;9.90;100.00
24486;BME280;13449;49.374;8.584;2023-04-02T15:18:50;100859.09;;;9.94;100.00
24486;BME280;13449;49.374;8.584;2023-04-02T15:24:01;100863.72;;;9.92;100.00
24486;BME280;13449;49.374;8.584;2023-04-02T15:29:23;100877.41;;;9.62;100.00
24486;BME280;13449;49.374;8.584;2023-04-02T15:32:57;100881.34;;;9.49;100.00
24486;BME280;13449;49.374;8.584;2023-04-02T15:42:45;100899.13;;;9.21;100.00
24486;BME280;13449;49.374;8.584;2023-04-02T15:45:25;100906.19;;;9.21;100.00
24486;BME280;13449;49.374;8.584;2023-04-02T15:48:17;100900.13;;;9.28;100.00
24486;BME280;13449;49.374;8.584;2023-04-02T15:50:56;100898.72;;;9.42;100.00
24486;BME280;13449;49.374;8.584;2023-04-02T15:53:41;100900.66;;;9.32;100.00
24486;BME280;13449;49.374;8.584;2023-04-02T15:56:40;100919.63;;;9.18;100.00
24486;BME280;13449;49.374;8.584;2023-04-02T15:59:38;100919.63;;;9.18;100.00
24486;BME280;13449;49.374;8.584;2023-04-02T16:04:55;100925.34;;;9.13;100.00
24486;BME280;13449;49.374;8.584;2023-04-02T16:10:27;100925.22;;;9.15;100.00
24486;BME280;13449;49.374;8.584;2023-04-02T16:15:57;100936.03;;;9.11;100.00
24486;BME280;13449;49.374;8.584;2023-04-02T16:21:10;100951.69;;;8.95;100.00
24486;BME280;13449;49.374;8.584;2023-04-02T16:23:40;100960.16;;;9.07;100.00
24486;BME280;13449;49.374;8.584;2023-04-02T16:29:08;100969.59;;;9.00;100.00
24486;BME280;13449;49.374;8.584;2023-04-02T16:37:53;100983.81;;;8.89;100.00
24486;BME280;13449;49.374;8.584;2023-04-02T16:40:39;100984.22;;;8.94;100.00
24486;BME280;13449;49.374;8.584;2023-04-02T16:43:32;100990.72;;;8.90;100.00
24486;BME280;13449;49.374;8.584;2023-04-02T16:57:35;101016.03;;;8.28;100.00
24486;BME280;13449;49.374;8.584;2023-04-02T17:00:23;101021.50;;;8.16;100.00
24486;BME280;13449;49.374;8.584;2023-04-02T17:06:18;101028.94;;;7.93;100.00